createdAt,value
2023-05-25T03:00:37.776Z,15.25
2023-05-25T03:03:06.041Z,15.26
2023-05-25T03:05:35.476Z,15.24
2023-05-25T03:08:03.772Z,15.29
2023-05-25T03:10:32.222Z,15.29
2023-05-25T03:13:00.051Z,15.27
2023-05-25T03:15:27.217Z,15.29
2023-05-25T03:17:56.926Z,15.32
2023-05-25T03:20:26.520Z,15.31
2023-05-25T03:22:55.337Z,15.27
2023-05-25T03:25:23.346Z,15.28
2023-05-25T03:27:54.273Z,15.30
2023-05-25T03:30:22.477Z,15.35
2023-05-25T03:32:51.006Z,15.38
2023-05-25T03:35:19.665Z,15.40
2023-05-25T03:37:46.931Z,15.41
2023-05-25T03:40:14.676Z,15.42
2023-05-25T03:42:42.451Z,15.38
2023-05-25T03:45:10.900Z,15.38
2023-05-25T03:47:40.498Z,15.43
2023-05-25T03:50:08.690Z,15.48
2023-05-25T03:52:36.751Z,15.50
2023-05-25T03:55:04.701Z,15.52
2023-05-25T03:57:32.066Z,15.56
2023-05-25T03:59:59.373Z,15.56
2023-05-25T04:02:27.142Z,15.55
2023-05-25T04:04:57.190Z,15.56
2023-05-25T04:07:31.144Z,15.58
2023-05-25T04:09:59.883Z,15.59
2023-05-25T04:12:28.089Z,15.59
2023-05-25T04:14:56.551Z,15.57
2023-05-25T04:17:26.515Z,15.58
2023-05-25T04:19:54.326Z,15.63
2023-05-25T04:22:23.822Z,15.60
2023-05-25T04:24:50.887Z,15.54
2023-05-25T04:27:20.445Z,15.46
2023-05-25T04:29:50.122Z,15.40
2023-05-25T04:32:45.668Z,15.34
2023-05-25T04:35:34.229Z,15.34
2023-05-25T04:38:03.170Z,15.38
2023-05-25T04:40:32.913Z,15.50
2023-05-25T04:43:01.925Z,15.67
2023-05-25T04:45:32.338Z,15.84
2023-05-25T04:48:01.919Z,16.04
2023-05-25T04:50:30.258Z,16.23
2023-05-25T04:52:57.351Z,16.47
2023-05-25T04:55:25.520Z,17.30
2023-05-25T04:57:54.947Z,18.61
2023-05-25T05:00:25.015Z,19.68
2023-05-25T05:02:58.884Z,19.80
2023-05-25T05:05:26.830Z,19.93
2023-05-25T05:07:56.347Z,19.80
2023-05-25T05:10:24.344Z,19.63
2023-05-25T05:12:57.126Z,19.45
2023-05-25T05:15:25.125Z,19.26
2023-05-25T05:17:54.299Z,19.04
2023-05-25T05:20:22.888Z,18.81
2023-05-25T05:22:52.950Z,18.68
2023-05-25T05:25:21.100Z,18.61
2023-05-25T05:27:48.310Z,18.65
2023-05-25T05:30:23.353Z,18.67
2023-05-25T05:32:50.647Z,18.62
2023-05-25T05:35:19.575Z,18.64
2023-05-25T05:37:48.000Z,18.72
2023-05-25T05:40:16.038Z,18.91
2023-05-25T05:42:43.919Z,19.20
2023-05-25T05:45:13.428Z,19.56
2023-05-25T05:47:41.597Z,20.17
2023-05-25T05:50:10.745Z,21.22
2023-05-25T05:52:40.048Z,22.73
2023-05-25T05:55:08.607Z,24.55
2023-05-25T05:57:38.731Z,26.59
2023-05-25T06:00:07.384Z,28.15
2023-05-25T06:02:43.280Z,29.14
2023-05-25T06:05:13.585Z,28.61
2023-05-25T06:07:42.980Z,27.39
2023-05-25T06:10:10.929Z,26.47
2023-05-25T06:12:38.674Z,25.70
2023-05-25T06:15:07.450Z,24.87
2023-05-25T06:17:37.581Z,24.20
2023-05-25T06:20:06.627Z,23.58
2023-05-25T06:22:34.452Z,22.97
2023-05-25T06:25:02.327Z,22.49
2023-05-25T06:27:29.777Z,21.96
2023-05-25T06:29:57.656Z,21.54
2023-05-25T06:32:25.653Z,21.22
2023-05-25T06:34:55.542Z,21.11
2023-05-25T06:37:23.857Z,21.07
2023-05-25T06:39:51.861Z,20.94
2023-05-25T06:42:19.859Z,20.82
2023-05-25T06:44:54.038Z,20.74
2023-05-25T06:47:21.579Z,20.71
2023-05-25T06:49:50.063Z,20.69
2023-05-25T06:52:17.747Z,20.68
2023-05-25T06:54:45.588Z,20.69
2023-05-25T06:57:13.490Z,20.64
2023-05-25T06:59:41.309Z,20.69
2023-05-25T07:02:09.137Z,20.79
2023-05-25T07:04:37.378Z,20.82
2023-05-25T07:07:05.501Z,20.69
2023-05-25T07:09:33.522Z,20.74
2023-05-25T07:12:01.166Z,20.83
2023-05-25T07:14:28.876Z,20.84
2023-05-25T07:16:57.002Z,20.81
2023-05-25T07:19:24.925Z,20.94
2023-05-25T07:21:52.681Z,21.05
2023-05-25T07:24:20.817Z,21.17
2023-05-25T07:26:49.546Z,21.30
2023-05-25T07:29:17.851Z,21.37
2023-05-25T07:31:46.137Z,21.39
2023-05-25T07:34:13.901Z,21.41
2023-05-25T07:36:41.634Z,21.46
2023-05-25T07:39:11.225Z,21.54
2023-05-25T07:41:39.367Z,21.40
2023-05-25T07:44:06.812Z,21.32
2023-05-25T07:46:34.616Z,21.43
2023-05-25T07:49:04.835Z,21.36
2023-05-25T07:51:33.610Z,21.35
2023-05-25T07:54:01.517Z,21.41
2023-05-25T07:56:29.502Z,21.44
2023-05-25T07:58:57.637Z,21.30
2023-05-25T08:01:26.961Z,21.16
2023-05-25T08:03:54.663Z,21.21
2023-05-25T08:06:21.996Z,21.22
2023-05-25T08:08:50.610Z,21.25
2023-05-25T08:11:17.754Z,21.39
2023-05-25T08:13:45.754Z,21.51
2023-05-25T08:16:13.416Z,21.53
2023-05-25T08:18:44.109Z,21.59
2023-05-25T08:21:12.021Z,21.63
2023-05-25T08:23:43.087Z,21.57
2023-05-25T08:26:31.195Z,21.68
2023-05-25T08:29:01.114Z,21.87
2023-05-25T08:31:29.354Z,21.90
2023-05-25T08:33:57.368Z,21.92
2023-05-25T08:36:26.149Z,22.01
2023-05-25T08:38:54.160Z,22.21
2023-05-25T08:41:22.828Z,22.52
2023-05-25T08:43:50.288Z,22.72
2023-05-25T08:46:24.618Z,22.91
2023-05-25T08:48:52.799Z,22.90
2023-05-25T08:51:20.628Z,22.86
2023-05-25T08:53:47.736Z,22.92
2023-05-25T08:56:26.528Z,23.10
2023-05-25T08:59:04.808Z,23.22
2023-05-25T09:01:36.410Z,23.19
2023-05-25T09:04:03.566Z,23.22
2023-05-25T09:06:30.633Z,23.24
2023-05-25T09:08:57.872Z,23.28
2023-05-25T09:11:37.259Z,23.20
2023-05-25T09:14:07.224Z,23.00
2023-05-25T09:16:36.793Z,22.76
2023-05-25T09:19:04.623Z,22.58
2023-05-25T09:21:31.786Z,22.40
2023-05-25T09:24:00.233Z,22.26
2023-05-25T09:26:28.236Z,22.21
2023-05-25T09:28:55.786Z,22.23
2023-05-25T09:31:24.613Z,22.34
2023-05-25T09:33:55.079Z,22.49
2023-05-25T09:36:22.974Z,22.50
2023-05-25T09:38:52.595Z,22.43
2023-05-25T09:41:21.208Z,22.37
2023-05-25T09:44:02.104Z,22.39
2023-05-25T09:46:38.886Z,22.39
2023-05-25T09:49:08.093Z,22.40
2023-05-25T09:51:36.255Z,22.44
2023-05-25T09:54:04.550Z,22.41
2023-05-25T09:56:33.166Z,22.39
2023-05-25T09:59:01.284Z,22.45
2023-05-25T10:01:28.705Z,22.58
2023-05-25T10:04:04.328Z,22.72
2023-05-25T10:06:33.995Z,22.74
2023-05-25T10:09:02.357Z,22.77
2023-05-25T10:11:30.783Z,22.83
2023-05-25T10:14:03.933Z,22.81
2023-05-25T10:16:33.671Z,22.68
2023-05-25T10:19:06.515Z,22.67
2023-05-25T10:21:37.045Z,22.80
2023-05-25T10:24:06.465Z,22.96
2023-05-25T10:26:39.966Z,23.10
2023-05-25T10:29:09.201Z,23.28
2023-05-25T10:31:38.688Z,23.42
2023-05-25T10:34:06.060Z,23.54
2023-05-25T10:36:43.208Z,23.72
2023-05-25T10:39:11.827Z,23.87
2023-05-25T10:41:39.685Z,23.95
2023-05-25T10:44:08.262Z,24.00
2023-05-25T10:46:36.476Z,24.01
2023-05-25T10:49:04.017Z,23.96
2023-05-25T10:51:38.983Z,23.88
2023-05-25T10:54:07.100Z,23.87
2023-05-25T10:56:34.429Z,23.87
2023-05-25T10:59:02.595Z,23.76
2023-05-25T11:01:33.151Z,23.73
2023-05-25T11:04:21.277Z,23.74
2023-05-25T11:06:49.096Z,23.77
2023-05-25T11:09:26.747Z,23.71
2023-05-25T11:11:55.957Z,23.70
2023-05-25T11:14:29.668Z,23.71
2023-05-25T11:17:18.444Z,23.66
2023-05-25T11:19:54.140Z,23.70
2023-05-25T11:22:22.847Z,23.68
2023-05-25T11:24:51.875Z,23.66
2023-05-25T11:27:27.197Z,23.70
2023-05-25T11:29:57.763Z,23.76
2023-05-25T11:32:26.521Z,23.80
2023-05-25T11:34:55.209Z,23.78
2023-05-25T11:37:28.915Z,23.66
2023-05-25T11:39:57.866Z,23.63
2023-05-25T11:42:26.388Z,23.65
2023-05-25T11:44:55.681Z,23.71
2023-05-25T11:47:25.363Z,23.82
2023-05-25T11:49:55.535Z,23.92
2023-05-25T11:52:23.332Z,24.01
2023-05-25T11:54:53.500Z,24.12
2023-05-25T11:57:24.726Z,24.18
2023-05-25T11:59:53.580Z,24.23
2023-05-25T12:02:21.887Z,24.25
2023-05-25T12:04:53.664Z,24.24
2023-05-25T12:07:21.432Z,24.38
2023-05-25T12:09:48.942Z,24.59
2023-05-25T12:12:16.531Z,24.76
2023-05-25T12:14:47.437Z,24.82
2023-05-25T12:17:16.395Z,24.73
2023-05-25T12:19:44.941Z,24.63
2023-05-25T12:22:14.069Z,24.59
2023-05-25T12:24:41.826Z,24.58
2023-05-25T12:27:27.714Z,24.65
2023-05-25T12:29:59.008Z,24.69
2023-05-25T12:32:27.045Z,24.77
2023-05-25T12:35:04.986Z,24.69
2023-05-25T12:37:33.174Z,24.44
2023-05-25T12:40:01.060Z,24.35
2023-05-25T12:42:30.956Z,24.31
2023-05-25T12:45:00.733Z,24.28
2023-05-25T12:47:30.269Z,24.35
2023-05-25T12:50:13.534Z,24.42
2023-05-25T12:52:43.095Z,24.57
2023-05-25T12:55:21.152Z,24.66
2023-05-25T12:57:55.014Z,24.71
2023-05-25T13:00:23.672Z,24.80
2023-05-25T13:02:53.695Z,24.78
2023-05-25T13:05:29.100Z,24.75
2023-05-25T13:07:58.156Z,24.76
2023-05-25T13:10:26.615Z,24.78
2023-05-25T13:12:56.217Z,24.81
2023-05-25T13:15:23.890Z,24.90
2023-05-25T13:17:52.568Z,25.01
2023-05-25T13:20:21.627Z,25.02
2023-05-25T13:22:50.367Z,24.98
2023-05-25T13:25:17.932Z,24.78
2023-05-25T13:27:49.920Z,24.65
2023-05-25T13:30:17.869Z,24.61
2023-05-25T13:32:46.050Z,24.62
2023-05-25T13:35:36.973Z,24.67
2023-05-25T13:38:05.223Z,24.74
2023-05-25T13:40:32.852Z,24.80
2023-05-25T13:43:00.852Z,24.86
2023-05-25T13:45:28.602Z,24.92
2023-05-25T13:47:56.692Z,25.00
2023-05-25T13:50:24.813Z,25.11
2023-05-25T13:52:52.433Z,25.17
2023-05-25T13:55:19.578Z,25.21
2023-05-25T13:57:46.627Z,25.21
2023-05-25T14:00:14.177Z,25.01
2023-05-25T14:02:41.817Z,24.72
2023-05-25T14:05:09.612Z,24.38
2023-05-25T14:07:38.920Z,24.11
2023-05-25T14:10:06.596Z,23.92
2023-05-25T14:12:34.108Z,23.84
2023-05-25T14:15:01.716Z,23.74
2023-05-25T14:17:29.459Z,23.66
2023-05-25T14:19:58.361Z,23.56
2023-05-25T14:22:27.512Z,23.55
2023-05-25T14:24:54.531Z,23.56
2023-05-25T14:27:21.728Z,23.57
2023-05-25T14:29:50.039Z,23.58
2023-05-25T14:32:18.522Z,23.54
2023-05-25T14:34:45.809Z,23.51
2023-05-25T14:37:13.797Z,23.45
2023-05-25T14:39:40.985Z,23.37
2023-05-25T14:42:08.068Z,23.32
2023-05-25T14:44:35.558Z,23.32
2023-05-25T14:47:03.583Z,23.34
2023-05-25T14:49:31.996Z,23.30
2023-05-25T14:51:59.650Z,23.26
2023-05-25T14:54:27.359Z,23.22
2023-05-25T14:56:55.678Z,23.26
2023-05-25T14:59:23.147Z,23.37
2023-05-25T15:01:51.025Z,23.46
2023-05-25T15:04:18.990Z,23.57
2023-05-25T15:06:46.291Z,23.61
2023-05-25T15:09:15.875Z,23.61
2023-05-25T15:11:44.109Z,23.63
2023-05-25T15:14:11.962Z,23.66
2023-05-25T15:16:40.309Z,23.69
2023-05-25T15:19:10.624Z,23.69
2023-05-25T15:21:40.191Z,23.63
2023-05-25T15:24:08.157Z,23.62
2023-05-25T15:26:36.279Z,23.63
2023-05-25T15:29:04.021Z,23.66
2023-05-25T15:31:32.111Z,23.67
2023-05-25T15:34:00.943Z,23.66
2023-05-25T15:36:28.965Z,23.68
2023-05-25T15:38:56.825Z,23.68
2023-05-25T15:41:24.937Z,23.70
2023-05-25T15:43:57.874Z,23.76
2023-05-25T15:46:26.941Z,23.76
2023-05-25T15:48:54.504Z,23.82
2023-05-25T15:51:22.254Z,23.87
2023-05-25T15:53:50.147Z,23.90
2023-05-25T15:56:18.156Z,23.88
2023-05-25T15:58:48.729Z,23.82
2023-05-25T16:01:17.492Z,23.77
2023-05-25T16:03:45.538Z,23.73
2023-05-25T16:06:12.912Z,23.73
2023-05-25T16:08:40.994Z,23.74
2023-05-25T16:11:08.980Z,23.71
2023-05-25T16:13:36.893Z,23.74
2023-05-25T16:16:05.504Z,23.82
2023-05-25T16:18:33.723Z,23.84
2023-05-25T16:21:01.870Z,23.79
2023-05-25T16:23:29.581Z,23.78
2023-05-25T16:25:57.414Z,23.69
2023-05-25T16:28:25.967Z,23.51
2023-05-25T16:30:53.709Z,23.34
2023-05-25T16:33:21.619Z,23.19
2023-05-25T16:35:50.124Z,23.09
2023-05-25T16:38:18.733Z,23.01
2023-05-25T16:40:46.639Z,22.97
2023-05-25T16:43:14.024Z,22.94
2023-05-25T16:45:42.141Z,22.89
2023-05-25T16:48:11.987Z,22.84
2023-05-25T16:50:39.420Z,22.77
2023-05-25T16:53:08.091Z,22.63
2023-05-25T16:55:35.974Z,22.46
2023-05-25T16:58:03.135Z,22.32
2023-05-25T17:00:30.479Z,22.24
2023-05-25T17:02:58.080Z,22.15
2023-05-25T17:05:25.990Z,22.01
2023-05-25T17:07:53.323Z,21.87
2023-05-25T17:10:20.929Z,21.73
2023-05-25T17:12:50.186Z,21.63
2023-05-25T17:15:18.355Z,21.59
2023-05-25T17:17:46.021Z,21.55
2023-05-25T17:20:14.042Z,21.48
2023-05-25T17:22:43.758Z,21.41
2023-05-25T17:25:12.090Z,21.30
2023-05-25T17:27:40.917Z,21.14
2023-05-25T17:30:09.000Z,21.03
2023-05-25T17:32:37.920Z,20.89
2023-05-25T17:35:05.684Z,20.78
2023-05-25T17:37:33.311Z,20.71
2023-05-25T17:40:01.336Z,20.67
2023-05-25T17:42:29.112Z,20.63
2023-05-25T17:44:57.187Z,20.58
2023-05-25T17:47:26.110Z,20.50
2023-05-25T17:49:54.818Z,20.41
2023-05-25T17:52:23.358Z,20.34
2023-05-25T17:54:51.124Z,20.26
2023-05-25T17:57:19.287Z,20.20
2023-05-25T17:59:47.111Z,20.16
2023-05-25T18:02:16.257Z,20.12
2023-05-25T18:04:45.044Z,20.08
2023-05-25T18:07:13.772Z,20.00
2023-05-25T18:09:41.602Z,19.92
2023-05-25T18:12:09.160Z,19.87
2023-05-25T18:14:37.778Z,19.80
2023-05-25T18:17:05.470Z,19.72
2023-05-25T18:19:34.283Z,19.63
2023-05-25T18:22:01.751Z,19.57
2023-05-25T18:24:30.288Z,19.45
2023-05-25T18:27:03.392Z,19.32
2023-05-25T18:29:31.593Z,19.20
2023-05-25T18:31:59.925Z,19.13
2023-05-25T18:34:30.322Z,19.08
2023-05-25T18:36:57.902Z,19.04
2023-05-25T18:39:27.587Z,19.00
2023-05-25T18:41:56.005Z,18.98
2023-05-25T18:44:24.665Z,18.95
2023-05-25T18:46:55.770Z,18.93
2023-05-25T18:49:24.252Z,18.93
2023-05-25T18:51:53.772Z,18.92
2023-05-25T18:54:21.665Z,18.89
2023-05-25T18:56:51.331Z,18.87
2023-05-25T18:59:20.042Z,18.85
2023-05-25T19:01:47.230Z,18.81
2023-05-25T19:04:14.794Z,18.75
2023-05-25T19:06:43.547Z,18.69
2023-05-25T19:09:11.071Z,18.62
2023-05-25T19:11:39.669Z,18.55
2023-05-25T19:14:08.952Z,18.48
2023-05-25T19:16:37.884Z,18.39
2023-05-25T19:19:06.603Z,18.31
2023-05-25T19:21:37.233Z,18.26
2023-05-25T19:24:05.362Z,18.21
2023-05-25T19:26:36.599Z,18.14
2023-05-25T19:29:05.792Z,18.04
2023-05-25T19:31:34.086Z,17.96
2023-05-25T19:34:03.148Z,17.88
2023-05-25T19:36:34.064Z,17.80
2023-05-25T19:39:05.054Z,17.73
2023-05-25T19:41:36.311Z,17.70
2023-05-25T19:44:05.135Z,17.69
2023-05-25T19:46:34.214Z,17.71
2023-05-25T19:49:02.339Z,17.73
2023-05-25T19:51:33.111Z,17.76
2023-05-25T19:54:02.805Z,17.79
2023-05-25T19:56:31.254Z,17.81
2023-05-25T19:59:00.294Z,17.78
2023-05-25T20:01:28.129Z,17.72
2023-05-25T20:03:57.974Z,17.67
2023-05-25T20:06:25.358Z,17.63
2023-05-25T20:08:53.004Z,17.57
2023-05-25T20:11:22.964Z,17.50
2023-05-25T20:13:51.322Z,17.48
2023-05-25T20:16:18.410Z,17.45
2023-05-25T20:18:45.534Z,17.39
2023-05-25T20:21:13.131Z,17.32
2023-05-25T20:23:40.816Z,17.24
2023-05-25T20:26:08.941Z,17.23
2023-05-25T20:28:38.374Z,17.20
2023-05-25T20:31:06.194Z,17.15
2023-05-25T20:33:33.918Z,17.16
2023-05-25T20:36:01.776Z,17.18
2023-05-25T20:38:29.383Z,17.16
2023-05-25T20:40:58.584Z,17.12
2023-05-25T20:43:28.313Z,17.12
2023-05-25T20:45:56.007Z,17.12
2023-05-25T20:48:25.099Z,17.13
2023-05-25T20:50:54.665Z,17.13
2023-05-25T20:53:23.607Z,17.09
2023-05-25T20:55:52.606Z,17.06
2023-05-25T20:58:20.689Z,17.04
2023-05-25T21:00:52.303Z,16.99
2023-05-25T21:03:19.502Z,16.93
2023-05-25T21:05:47.279Z,16.88
2023-05-25T21:08:15.056Z,16.86
2023-05-25T21:10:43.757Z,16.88
2023-05-25T21:13:17.950Z,16.88
2023-05-25T21:15:53.755Z,16.87
2023-05-25T21:18:24.393Z,16.87
2023-05-25T21:20:58.988Z,16.84
2023-05-25T21:23:29.835Z,16.81
2023-05-25T21:25:59.765Z,16.78
2023-05-25T21:28:30.683Z,16.78
2023-05-25T21:31:05.230Z,16.76
2023-05-25T21:33:36.753Z,16.71
2023-05-25T21:36:08.152Z,16.70
2023-05-25T21:38:41.416Z,16.70
2023-05-25T21:41:11.152Z,16.71
2023-05-25T21:43:38.705Z,16.73
2023-05-25T21:46:06.950Z,16.72
2023-05-25T21:48:35.863Z,16.67
2023-05-25T21:51:03.883Z,16.65
2023-05-25T21:53:31.699Z,16.64
2023-05-25T21:55:59.705Z,16.61
2023-05-25T21:58:27.714Z,16.59
2023-05-25T22:00:56.188Z,16.58
2023-05-25T22:03:23.876Z,16.57
2023-05-25T22:05:52.100Z,16.51
2023-05-25T22:08:19.526Z,16.50
2023-05-25T22:10:47.146Z,16.50
2023-05-25T22:13:14.939Z,16.49
2023-05-25T22:15:44.112Z,16.49
2023-05-25T22:18:11.635Z,16.42
2023-05-25T22:20:41.634Z,16.35
2023-05-25T22:23:11.313Z,16.30
2023-05-25T22:25:38.531Z,16.27
2023-05-25T22:28:08.869Z,16.19
2023-05-25T22:30:38.863Z,16.15
2023-05-25T22:33:11.558Z,16.13
2023-05-25T22:36:09.910Z,16.15
2023-05-25T22:38:39.172Z,16.19
2023-05-25T22:41:09.090Z,16.21
2023-05-25T22:43:39.395Z,16.26
2023-05-25T22:46:14.235Z,16.30
2023-05-25T22:48:43.161Z,16.32
2023-05-25T22:51:12.689Z,16.30
2023-05-25T22:53:41.114Z,16.26
2023-05-25T22:56:09.321Z,16.22
2023-05-25T22:58:37.060Z,16.17
2023-05-25T23:01:05.844Z,16.14
2023-05-25T23:03:34.337Z,16.15
2023-05-25T23:06:05.346Z,16.13
2023-05-25T23:08:33.359Z,16.06
2023-05-25T23:11:01.721Z,16.06
2023-05-25T23:13:30.424Z,16.04
2023-05-25T23:15:59.403Z,16.03
2023-05-25T23:18:27.472Z,16.00
2023-05-25T23:20:57.782Z,15.99
2023-05-25T23:23:28.357Z,15.94
2023-05-25T23:25:58.415Z,15.90
2023-05-25T23:28:26.405Z,15.83
2023-05-25T23:31:01.597Z,15.80
2023-05-25T23:33:31.789Z,15.78
2023-05-25T23:36:01.489Z,15.73
2023-05-25T23:38:29.223Z,15.69
2023-05-25T23:40:59.773Z,15.67
2023-05-25T23:43:27.717Z,15.66
2023-05-25T23:45:55.273Z,15.62
2023-05-25T23:48:23.119Z,15.51
2023-05-25T23:50:50.988Z,15.39
2023-05-25T23:53:18.752Z,15.28
2023-05-25T23:55:46.985Z,15.18
2023-05-25T23:58:15.667Z,15.10
